Time;durP1;ratioP1;P1;durP2;ratioP2;P2;SDS_P1;SDS_P2;PMS_P1;PMS_P2;Temp;Humidity;BMP_temperature;BMP_pressure;BME280_temperature;BME280_humidity;BME280_pressure;Samples;Min_cycle;Max_cycle;Signal;HPM_P1;HPM_P2
2023/05/03 00:02:23;;;;;;;5.40;2.30;;;;;;;11.57;47.37;100030.30;107225;1261;75635;-38
2023/05/03 00:04:53;;;;;;;4.90;2.30;;;;;;;11.56;47.52;100032.84;107136;1258;69989;-38
2023/05/03 00:07:21;;;;;;;3.80;2.30;;;;;;;11.56;47.53;100029.19;107118;1257;73745;-39
2023/05/03 00:09:49;;;;;;;4.60;2.30;;;;;;;11.54;47.49;100031.61;107139;1258;62567;-38
2023/05/03 00:12:16;;;;;;;4.00;2.20;;;;;;;11.54;47.50;100032.73;107055;1257;60958;-39
2023/05/03 00:14:44;;;;;;;3.60;2.10;;;;;;;11.55;47.36;100032.58;107134;1257;75211;-39
2023/05/03 00:17:12;;;;;;;3.70;2.30;;;;;;;11.55;47.40;100026.08;107107;1258;70184;-39
2023/05/03 00:19:39;;;;;;;5.20;2.10;;;;;;;11.54;47.46;100026.34;107068;1257;74648;-39
2023/05/03 00:22:06;;;;;;;5.80;2.20;;;;;;;11.52;47.59;100026.83;107095;1259;60496;-38
2023/05/03 00:24:34;;;;;;;4.40;2.00;;;;;;;11.50;47.60;100022.59;107061;1257;60842;-38
2023/05/03 00:27:03;;;;;;;4.70;2.10;;;;;;;11.48;47.56;100019.84;107108;1257;75228;-39
2023/05/03 00:29:30;;;;;;;8.10;2.40;;;;;;;11.47;47.76;100016.23;107083;1257;68430;-39
2023/05/03 00:31:58;;;;;;;5.50;2.50;;;;;;;11.46;47.82;100017.60;107024;1258;74686;-39
2023/05/03 00:34:26;;;;;;;4.30;2.40;;;;;;;11.43;47.86;100018.14;107068;1258;60435;-38
2023/05/03 00:36:53;;;;;;;5.90;2.00;;;;;;;11.39;48.04;100016.48;106910;1258;62425;-39
2023/05/03 00:39:20;;;;;;;5.30;2.20;;;;;;;11.35;48.22;100013.20;107058;1257;75854;-38
2023/05/03 00:41:47;;;;;;;4.30;2.30;;;;;;;11.30;48.28;100010.52;107041;1257;70001;-38
2023/05/03 00:44:15;;;;;;;6.90;2.20;;;;;;;11.26;48.52;100009.27;107068;1259;73737;-38
2023/05/03 00:46:42;;;;;;;3.50;1.90;;;;;;;11.24;48.49;100007.55;107057;1259;62695;-38
2023/05/03 00:49:09;;;;;;;5.50;2.10;;;;;;;11.22;48.55;100005.52;107078;1257;62100;-38
2023/05/03 00:51:36;;;;;;;5.50;2.00;;;;;;;11.21;48.72;100008.56;107041;1259;74952;-39
2023/05/03 00:54:04;;;;;;;5.40;2.20;;;;;;;11.18;48.79;100004.16;107104;1257;66959;-39
2023/05/03 00:56:32;;;;;;;3.60;1.90;;;;;;;11.15;48.95;100007.09;107082;1257;74973;-39
2023/05/03 00:59:16;;;;;;;3.90;2.00;;;;;;;11.12;49.01;100004.77;107034;1259;62675;-39
2023/05/03 01:01:47;;;;;;;5.70;2.30;;;;;;;11.09;49.14;100003.98;107081;1257;61702;-39
2023/05/03 01:04:14;;;;;;;3.90;2.00;;;;;;;11.08;49.27;100004.66;107111;1257;75428;-39
2023/05/03 01:07:03;;;;;;;3.40;2.40;;;;;;;11.06;49.31;100005.46;107278;1257;70283;-39
2023/05/03 01:09:36;;;;;;;6.10;2.10;;;;;;;11.03;49.43;100004.52;107316;1257;74978;-39
2023/05/03 01:12:29;;;;;;;4.40;2.20;;;;;;;11.01;49.54;99998.26;107271;1260;62394;-39
2023/05/03 01:15:07;;;;;;;4.70;2.50;;;;;;;11.00;49.57;99991.34;107258;1257;60320;-39
2023/05/03 01:17:39;;;;;;;5.00;2.10;;;;;;;10.97;49.55;99993.98;107302;1256;74329;-39
2023/05/03 01:20:09;;;;;;;6.10;2.50;;;;;;;10.96;49.63;99992.23;107290;1257;70017;-39
2023/05/03 01:22:48;;;;;;;4.10;2.10;;;;;;;10.96;49.63;99990.83;107235;1257;72735;-39
2023/05/03 01:25:15;;;;;;;8.20;2.30;;;;;;;10.94;49.58;99987.98;107221;1257;61188;-39
2023/05/03 01:27:42;;;;;;;8.00;2.30;;;;;;;10.91;49.62;99985.11;107269;1257;62049;-39
2023/05/03 01:30:11;;;;;;;5.30;2.60;;;;;;;10.89;49.73;99980.04;107295;1257;75289;-39
2023/05/03 01:33:00;;;;;;;2.90;1.90;;;;;;;10.86;49.74;99975.55;107249;1256;68507;-39
2023/05/03 01:35:43;;;;;;;6.60;1.90;;;;;;;10.84;49.83;99976.64;107294;1257;74913;-39
2023/05/03 01:38:10;;;;;;;3.40;1.80;;;;;;;10.80;49.95;99977.24;107336;1256;62360;-39
2023/05/03 01:40:41;;;;;;;5.00;2.50;;;;;;;10.78;49.96;99976.73;107106;1256;63108;-39
2023/05/03 01:43:10;;;;;;;3.00;2.30;;;;;;;10.77;49.93;99975.20;107171;1256;73504;-39
2023/05/03 01:45:39;;;;;;;6.80;2.50;;;;;;;10.75;50.06;99974.98;107092;1257;68441;-39
2023/05/03 01:48:10;;;;;;;4.00;2.30;;;;;;;10.74;50.20;99971.79;106919;1259;75051;-39
2023/05/03 01:50:38;;;;;;;3.90;2.10;;;;;;;10.71;50.23;99972.23;107104;1258;62122;-39
2023/05/03 01:53:05;;;;;;;3.80;2.30;;;;;;;10.68;50.48;99975.27;107087;1259;61982;-39
2023/05/03 01:55:32;;;;;;;5.90;2.00;;;;;;;10.62;50.61;99974.40;107165;1259;75372;-40
2023/05/03 01:57:59;;;;;;;9.50;2.40;;;;;;;10.59;50.67;99972.30;107046;1257;68777;-39
2023/05/03 02:00:26;;;;;;;3.30;2.10;;;;;;;10.56;50.67;99973.76;106959;1259;74749;-39
2023/05/03 02:02:54;;;;;;;9.30;2.20;;;;;;;10.55;50.71;99972.03;106293;1259;1003826;-39
2023/05/03 02:05:21;;;;;;;5.30;2.70;;;;;;;10.55;50.78;99972.87;107157;1258;61647;-39
2023/05/03 02:07:48;;;;;;;11.30;2.60;;;;;;;10.53;50.85;99974.68;107117;1257;75237;-39
2023/05/03 02:10:16;;;;;;;3.90;2.10;;;;;;;10.50;51.03;99977.86;107038;1263;68557;-39
2023/05/03 02:12:43;;;;;;;4.40;2.40;;;;;;;10.48;51.14;99979.27;107166;1259;74980;-39
2023/05/03 02:15:11;;;;;;;4.20;2.10;;;;;;;10.47;51.38;99978.23;107249;1257;62078;-39
2023/05/03 02:17:41;;;;;;;7.80;2.20;;;;;;;10.43;51.49;99982.45;107121;1258;60407;-39
2023/05/03 02:20:09;;;;;;;6.90;2.20;;;;;;;10.40;51.51;99984.46;107251;1257;74010;-39
2023/05/03 02:22:36;;;;;;;4.40;1.90;;;;;;;10.38;51.65;99989.27;107249;1259;69293;-39
2023/05/03 02:25:05;;;;;;;5.10;2.00;;;;;;;10.36;51.86;99991.15;107103;1260;74944;-39
2023/05/03 02:27:32;;;;;;;6.50;2.20;;;;;;;10.34;51.95;99986.46;107175;1257;62385;-39
2023/05/03 02:30:00;;;;;;;3.40;2.40;;;;;;;10.34;52.12;99993.01;107065;1258;61170;-39
2023/05/03 02:32:30;;;;;;;6.20;2.30;;;;;;;10.31;52.24;99989.98;107060;1259;76149;-39
2023/05/03 02:34:58;;;;;;;8.80;2.20;;;;;;;10.28;52.27;99983.55;107136;1258;68944;-39
2023/05/03 02:37:25;;;;;;;3.40;2.00;;;;;;;10.25;52.25;99987.11;107224;1257;73795;-39
2023/05/03 02:39:52;;;;;;;5.00;2.20;;;;;;;10.24;52.47;99988.37;107039;1259;61699;-39
2023/05/03 02:42:19;;;;;;;6.70;2.40;;;;;;;10.22;52.62;99987.53;107096;1259;62324;-39
2023/05/03 02:44:48;;;;;;;6.20;2.20;;;;;;;10.20;52.64;99987.86;107293;1259;73254;-39
2023/05/03 02:47:15;;;;;;;4.70;2.20;;;;;;;10.18;52.78;99986.34;107083;1262;70171;-39
2023/05/03 02:49:42;;;;;;;4.70;2.10;;;;;;;10.17;52.90;99984.06;107173;1258;72042;-39
2023/05/03 02:52:09;;;;;;;6.50;2.30;;;;;;;10.15;53.08;99981.76;107033;1257;61155;-39
2023/05/03 02:54:38;;;;;;;7.80;2.50;;;;;;;10.12;53.21;99979.08;107025;1259;60506;-39
2023/05/03 02:57:07;;;;;;;4.50;2.30;;;;;;;10.10;53.29;99978.92;106971;1257;74572;-39
2023/05/03 02:59:35;;;;;;;6.00;2.20;;;;;;;10.07;53.41;99975.07;107016;1259;70235;-39
2023/05/03 03:02:02;;;;;;;4.40;2.00;;;;;;;10.07;53.42;99974.91;107063;1259;73876;-39
2023/05/03 03:04:30;;;;;;;3.70;2.30;;;;;;;10.09;53.39;99974.50;107084;1262;60521;-39
2023/05/03 03:06:57;;;;;;;9.10;2.60;;;;;;;10.10;53.44;99973.51;107061;1257;61353;-39
2023/05/03 03:09:24;;;;;;;6.40;2.80;;;;;;;10.10;53.54;99966.72;107226;1259;74057;-39
2023/05/03 03:11:52;;;;;;;7.30;2.30;;;;;;;10.10;53.52;99969.64;107128;1258;69998;-39
2023/05/03 03:14:19;;;;;;;5.80;2.70;;;;;;;10.10;53.50;99968.59;107102;1258;72402;-39
2023/05/03 03:16:50;;;;;;;6.00;2.50;;;;;;;10.13;53.80;99969.19;107099;1259;60379;-39
2023/05/03 03:19:17;;;;;;;7.10;2.50;;;;;;;10.13;53.76;99971.36;107095;1257;60381;-39
2023/05/03 03:21:44;;;;;;;5.80;2.40;;;;;;;10.13;53.82;99974.98;107073;1262;75571;-39
2023/05/03 03:24:13;;;;;;;6.20;2.50;;;;;;;10.13;53.83;99977.80;107069;1257;69630;-39
2023/05/03 03:26:40;;;;;;;6.20;2.40;;;;;;;10.14;54.03;99982.69;107036;1257;75030;-39
2023/05/03 03:29:08;;;;;;;3.90;2.30;;;;;;;10.14;53.98;99978.61;107024;1260;60574;-39
2023/05/03 03:31:37;;;;;;;8.30;2.80;;;;;;;10.14;54.08;99977.46;107188;1257;61190;-39
2023/05/03 03:34:04;;;;;;;6.80;2.40;;;;;;;10.15;54.12;99987.30;107028;1258;73927;-39
2023/05/03 03:36:32;;;;;;;7.40;2.80;;;;;;;10.15;54.22;99984.30;107038;1259;68136;-39
2023/05/03 03:38:59;;;;;;;6.30;2.60;;;;;;;10.16;54.30;99989.81;107057;1259;75075;-39
2023/05/03 03:41:26;;;;;;;5.90;2.60;;;;;;;10.16;54.36;99984.26;107041;1262;61137;-39
2023/05/03 03:43:54;;;;;;;6.20;2.20;;;;;;;10.17;54.34;99987.05;107105;1259;60308;-39
2023/05/03 03:46:21;;;;;;;6.00;2.60;;;;;;;10.18;54.46;99984.95;107031;1262;73965;-39
2023/05/03 03:48:49;;;;;;;4.90;2.30;;;;;;;10.19;54.50;99982.67;107056;1258;69734;-39
2023/05/03 03:51:16;;;;;;;4.20;2.60;;;;;;;10.21;54.51;99986.02;107062;1259;71530;-39
2023/05/03 03:53:44;;;;;;;7.40;2.30;;;;;;;10.22;54.36;99991.49;107116;1259;61079;-39
2023/05/03 03:56:11;;;;;;;6.90;2.00;;;;;;;10.23;54.40;99993.00;106994;1259;60344;-40
2023/05/03 03:58:39;;;;;;;4.70;2.20;;;;;;;10.26;54.47;99998.73;107103;1257;74364;-39
2023/05/03 04:01:06;;;;;;;9.60;2.60;;;;;;;10.28;54.36;100004.70;107048;1259;68371;-39
2023/05/03 04:03:34;;;;;;;8.40;2.80;;;;;;;10.32;54.27;100000.62;107019;1258;71900;-39
2023/05/03 04:06:02;;;;;;;9.90;2.70;;;;;;;10.36;54.30;99998.10;107002;1259;61516;-39
2023/05/03 04:08:30;;;;;;;7.10;3.00;;;;;;;10.40;54.17;99998.47;106999;1259;61969;-39
2023/05/03 04:10:57;;;;;;;8.10;2.60;;;;;;;10.46;54.07;99998.55;107581;1253;73750;-39
2023/05/03 04:13:25;;;;;;;6.10;2.80;;;;;;;10.52;53.93;100001.13;107325;1253;70264;-40
2023/05/03 04:15:55;;;;;;;7.10;2.30;;;;;;;10.57;53.73;100001.38;107287;1261;75109;-40
2023/05/03 04:18:22;;;;;;;7.30;2.40;;;;;;;10.63;53.48;100000.06;107367;1254;60376;-40
2023/05/03 04:20:51;;;;;;;4.20;2.30;;;;;;;10.70;53.46;100002.89;107560;1259;60307;-40
2023/05/03 04:23:19;;;;;;;8.00;2.20;;;;;;;10.76;53.30;100006.33;107348;1253;73097;-40
2023/05/03 04:25:47;;;;;;;8.50;2.50;;;;;;;10.83;53.13;100018.94;107398;1258;68899;-40
2023/05/03 04:28:16;;;;;;;6.70;2.20;;;;;;;10.92;53.03;100021.02;107407;1256;73220;-40
2023/05/03 04:30:46;;;;;;;3.80;2.10;;;;;;;11.00;53.08;100029.63;107525;1253;60556;-39
2023/05/03 04:33:15;;;;;;;7.50;2.80;;;;;;;11.08;52.88;100030.00;107353;1253;60501;-40
2023/05/03 04:35:43;;;;;;;6.80;2.10;;;;;;;11.16;52.54;100032.92;107319;1260;73221;-40
2023/05/03 04:38:13;;;;;;;6.50;2.30;;;;;;;11.24;52.23;100032.52;107583;1255;67838;-40
2023/05/03 04:40:40;;;;;;;4.70;2.50;;;;;;;11.33;52.11;100037.41;107521;1259;74725;-40
2023/05/03 04:43:08;;;;;;;7.40;2.40;;;;;;;11.41;52.23;100038.41;107372;1254;60454;-40
2023/05/03 04:45:38;;;;;;;5.50;2.10;;;;;;;11.49;51.93;100040.71;107378;1253;60863;-40
2023/05/03 04:48:08;;;;;;;5.80;2.40;;;;;;;11.57;51.18;100039.30;107344;1253;76199;-40
2023/05/03 04:50:35;;;;;;;4.90;2.10;;;;;;;11.67;51.30;100035.73;107353;1258;69152;-40
2023/05/03 04:53:03;;;;;;;7.00;2.20;;;;;;;11.77;50.87;100031.81;107329;1256;71364;-40
2023/05/03 04:55:32;;;;;;;7.10;2.30;;;;;;;11.86;50.90;100032.13;107355;1253;60535;-40
2023/05/03 04:58:00;;;;;;;4.50;2.20;;;;;;;11.93;50.44;100029.28;107526;1257;60480;-40
2023/05/03 05:00:28;;;;;;;6.90;3.00;;;;;;;12.02;50.53;100028.39;107318;1253;72928;-40
2023/05/03 05:03:00;;;;;;;8.50;2.30;;;;;;;12.11;50.16;100031.42;107384;1253;66410;-40
2023/05/03 05:05:29;;;;;;;5.70;2.10;;;;;;;12.20;49.44;100028.66;107377;1256;72201;-40
2023/05/03 05:07:57;;;;;;;9.00;2.30;;;;;;;12.28;49.65;100023.41;107320;1256;61502;-40
2023/05/03 05:10:25;;;;;;;7.40;2.10;;;;;;;12.37;49.37;100027.50;107357;1253;61298;-40
2023/05/03 05:12:53;;;;;;;5.00;2.20;;;;;;;12.46;49.08;100026.55;107279;1253;73849;-40
2023/05/03 05:15:21;;;;;;;4.60;2.10;;;;;;;12.57;49.06;100026.00;107324;1253;68257;-40
2023/05/03 05:17:48;;;;;;;6.70;2.30;;;;;;;12.66;48.80;100021.06;107359;1254;72137;-40
2023/05/03 05:20:18;;;;;;;7.70;2.50;;;;;;;12.76;48.16;100013.50;107410;1253;61458;-40
2023/05/03 05:22:47;;;;;;;;;;;;;;;12.87;48.20;100012.31;107381;1253;61480;-40
2023/05/03 05:25:14;;;;;;;5.90;2.30;;;;;;;12.92;47.54;100011.17;107304;1253;75460;-40
2023/05/03 05:27:42;;;;;;;6.60;2.00;;;;;;;12.99;47.02;100008.36;107606;1253;68593;-40
2023/05/03 05:30:10;;;;;;;7.10;2.40;;;;;;;13.12;46.61;100010.48;107478;1253;74391;-40
2023/05/03 05:32:39;;;;;;;3.80;2.20;;;;;;;13.25;46.79;100010.21;107350;1254;60432;-40
2023/05/03 05:35:08;;;;;;;4.20;2.10;;;;;;;13.37;46.27;100005.44;107415;1258;60322;-40
2023/05/03 05:37:36;;;;;;;4.30;2.20;;;;;;;13.50;45.59;100003.19;107364;1253;76123;-40
2023/05/03 05:40:06;;;;;;;5.50;2.10;;;;;;;13.65;45.63;100006.61;107419;1253;68901;-40
2023/05/03 05:42:39;;;;;;;6.90;2.00;;;;;;;13.81;45.68;100008.05;107344;1253;73680;-40
2023/05/03 05:45:07;;;;;;;5.30;2.10;;;;;;;13.96;45.15;100007.58;107338;1254;62316;-40
2023/05/03 05:47:35;;;;;;;5.30;1.80;;;;;;;14.12;45.26;100001.35;107465;1258;60734;-40
2023/05/03 05:50:03;;;;;;;6.40;2.10;;;;;;;14.28;44.41;100012.82;107230;1253;74376;-40
2023/05/03 05:52:41;;;;;;;6.00;2.20;;;;;;;14.46;43.17;100001.79;107223;1256;67962;-40
2023/05/03 05:55:12;;;;;;;8.10;2.40;;;;;;;14.60;43.39;99994.64;107537;1253;72805;-40
2023/05/03 05:57:40;;;;;;;6.60;2.00;;;;;;;14.74;43.37;99998.65;107517;1254;61417;-40
2023/05/03 06:00:13;;;;;;;6.30;2.30;;;;;;;14.91;42.58;99996.34;107338;1258;60995;-40
2023/05/03 06:02:43;;;;;;;4.60;2.00;;;;;;;15.06;41.48;99984.97;107313;1254;74511;-40
2023/05/03 06:05:15;;;;;;;5.00;2.00;;;;;;;15.18;41.56;99981.67;107332;1253;70388;-40
2023/05/03 06:07:42;;;;;;;2.70;1.80;;;;;;;15.30;40.84;99981.77;107244;1253;75129;-40
2023/05/03 06:10:10;;;;;;;5.30;2.30;;;;;;;15.41;40.60;99976.27;107146;1258;183817;-40
2023/05/03 06:14:43;;;;;;;6.60;2.10;;;;;;;15.67;41.13;99972.86;104264;1293;600220;-40
2023/05/03 06:17:28;;;;;;;10.10;2.00;;;;;;;15.85;41.02;99970.33;106473;1267;61309;-38
2023/05/03 06:19:56;;;;;;;7.50;2.00;;;;;;;16.01;39.79;99971.70;106614;1266;61396;-38
2023/05/03 06:22:24;;;;;;;5.60;1.80;;;;;;;16.16;38.88;99972.96;106572;1265;73533;-38
2023/05/03 06:24:54;;;;;;;5.40;1.70;;;;;;;16.28;38.49;99974.38;106653;1266;69101;-39
2023/05/03 06:27:21;;;;;;;3.60;1.70;;;;;;;16.37;38.25;99974.11;106426;1262;226772;-38
2023/05/03 06:29:50;;;;;;;8.80;2.20;;;;;;;16.42;38.14;99968.42;106828;1268;61426;-38
2023/05/03 06:32:18;;;;;;;5.00;2.20;;;;;;;16.46;38.43;99965.55;106854;1264;61275;-39
2023/05/03 06:34:45;;;;;;;6.40;1.80;;;;;;;16.54;38.11;99963.86;106831;1264;71426;-39
2023/05/03 06:37:14;;;;;;;5.00;1.80;;;;;;;16.63;37.57;99962.36;106898;1264;67848;-39
2023/05/03 06:39:41;;;;;;;8.30;2.20;;;;;;;16.69;36.83;99969.11;106770;1267;75003;-39
2023/05/03 06:42:08;;;;;;;4.50;1.90;;;;;;;16.73;36.27;99959.27;106809;1262;61420;-39
2023/05/03 06:44:38;;;;;;;8.10;2.10;;;;;;;16.75;36.16;99950.44;106829;1269;61450;-39
2023/05/03 06:47:06;;;;;;;6.10;1.50;;;;;;;16.73;36.48;99950.35;106792;1262;74407;-39
2023/05/03 06:49:33;;;;;;;8.90;2.00;;;;;;;16.76;36.57;99965.00;106928;1263;67917;-39
2023/05/03 06:52:01;;;;;;;8.20;2.10;;;;;;;16.77;36.60;99967.51;106846;1263;75020;-39
2023/05/03 06:54:28;;;;;;;9.00;2.20;;;;;;;16.77;35.86;99968.13;106846;1267;62646;-39
2023/05/03 06:56:55;;;;;;;11.00;1.80;;;;;;;16.77;36.52;99959.92;106825;1264;60483;-39
2023/05/03 06:59:23;;;;;;;6.30;2.00;;;;;;;16.79;36.53;99962.65;106839;1263;75343;-39
2023/05/03 07:01:50;;;;;;;7.40;1.70;;;;;;;16.81;35.97;99963.60;106832;1269;69292;-39
2023/05/03 07:04:17;;;;;;;5.00;1.80;;;;;;;16.84;36.61;99965.17;106830;1264;73182;-39
2023/05/03 07:06:45;;;;;;;10.00;2.40;;;;;;;16.89;36.09;99963.71;106806;1264;62512;-39
2023/05/03 07:09:22;;;;;;;8.50;2.30;;;;;;;16.96;35.87;99963.11;106810;1262;61421;-39
2023/05/03 07:12:10;;;;;;;9.20;2.00;;;;;;;17.07;35.90;99955.45;106854;1263;75328;-39
2023/05/03 07:14:38;;;;;;;9.60;2.10;;;;;;;17.16;35.42;99958.38;106810;1262;68279;-39
2023/05/03 07:17:06;;;;;;;5.40;2.10;;;;;;;17.24;35.09;99954.16;106829;1264;74984;-39
2023/05/03 07:19:33;;;;;;;7.00;2.00;;;;;;;17.32;35.12;99953.86;106797;1264;62592;-39
2023/05/03 07:22:02;;;;;;;7.00;2.20;;;;;;;17.39;35.05;99953.31;106844;1262;62520;-39
2023/05/03 07:24:29;;;;;;;7.00;2.10;;;;;;;17.45;35.31;99950.02;106837;1264;74415;-39
2023/05/03 07:26:57;;;;;;;9.30;2.10;;;;;;;17.50;34.87;99954.57;106809;1268;69982;-39
2023/05/03 07:29:25;;;;;;;4.20;2.10;;;;;;;17.54;35.22;99955.91;106740;1264;74940;-39
2023/05/03 07:31:53;;;;;;;7.70;2.40;;;;;;;17.60;35.56;99965.88;106767;1264;60986;-39
2023/05/03 07:34:20;;;;;;;4.40;2.20;;;;;;;17.69;35.65;99965.02;106807;1264;62179;-39
2023/05/03 07:36:47;;;;;;;3.80;2.00;;;;;;;17.82;34.89;99974.73;106836;1264;74424;-39
2023/05/03 07:39:16;;;;;;;4.90;2.10;;;;;;;17.93;35.16;99964.69;106828;1264;69299;-39
2023/05/03 07:41:43;;;;;;;3.90;1.90;;;;;;;18.05;35.38;99967.80;106860;1266;74961;-39
2023/05/03 07:44:10;;;;;;;5.50;1.90;;;;;;;18.17;35.26;99958.20;106985;1263;61002;-39
2023/05/03 07:46:37;;;;;;;5.50;2.10;;;;;;;18.26;35.32;99965.32;106897;1260;62647;-39
2023/05/03 07:49:05;;;;;;;7.50;1.90;;;;;;;18.33;35.28;99972.05;107009;1266;74179;-39
2023/05/03 07:51:36;;;;;;;3.60;1.70;;;;;;;18.37;34.54;99970.86;107021;1261;70332;-39
2023/05/03 07:54:03;;;;;;;5.20;1.80;;;;;;;18.35;34.12;99974.80;107043;1260;72795;-39
2023/05/03 07:56:32;;;;;;;10.70;2.30;;;;;;;18.34;34.10;99976.52;107020;1263;62502;-39
2023/05/03 07:58:59;;;;;;;4.30;2.00;;;;;;;18.39;34.81;99977.77;106978;1261;60224;-39
2023/05/03 08:01:29;;;;;;;;;;;;;;;18.48;34.16;99974.83;106955;1260;71459;-39
2023/05/03 08:03:57;;;;;;;4.80;2.00;;;;;;;18.52;35.22;99975.46;106963;1261;67707;-39
2023/05/03 08:06:24;;;;;;;4.60;1.80;;;;;;;18.57;33.90;99968.08;107348;1257;74853;-39
2023/05/03 08:08:52;;;;;;;4.10;1.80;;;;;;;18.65;34.05;99974.95;107199;1257;62009;-39
2023/05/03 08:11:19;;;;;;;7.60;2.70;;;;;;;18.69;33.93;99967.57;107266;1256;62193;-39
2023/05/03 08:13:46;;;;;;;5.40;2.10;;;;;;;18.74;34.47;99964.95;107246;1258;75104;-40
2023/05/03 08:16:15;;;;;;;3.80;1.70;;;;;;;18.82;33.92;99971.81;107223;1258;70236;-40
2023/05/03 08:18:42;;;;;;;8.70;1.90;;;;;;;18.87;33.42;99969.98;107240;1257;74618;-40
2023/05/03 08:21:11;;;;;;;2.50;1.80;;;;;;;18.89;33.95;99980.81;107252;1259;61296;-40
2023/05/03 08:23:38;;;;;;;5.00;1.90;;;;;;;18.94;34.33;99981.34;107302;1258;63075;-40
2023/05/03 08:26:08;;;;;;;8.20;1.90;;;;;;;19.00;33.62;99975.80;107225;1257;72359;-40
2023/05/03 08:28:35;;;;;;;3.10;1.80;;;;;;;19.06;33.37;99979.95;107328;1256;69381;-40
2023/05/03 08:31:03;;;;;;;5.70;2.20;;;;;;;19.11;34.24;99983.21;107241;1257;74970;-40
2023/05/03 08:33:31;;;;;;;9.00;2.00;;;;;;;19.21;33.62;99986.60;107157;1262;62599;-40
2023/05/03 08:35:58;;;;;;;5.20;2.00;;;;;;;19.25;33.10;99974.95;107130;1256;62196;-40
2023/05/03 08:38:26;;;;;;;5.10;2.20;;;;;;;19.22;33.40;99989.73;107139;1257;74893;-39
2023/05/03 08:40:54;;;;;;;10.50;1.90;;;;;;;19.24;33.56;99978.41;107138;1257;70266;-40
2023/05/03 08:43:21;;;;;;;5.10;2.20;;;;;;;19.33;33.66;99979.14;107122;1257;73521;-40
2023/05/03 08:45:48;;;;;;;4.50;1.90;;;;;;;19.44;33.04;99981.44;107176;1258;59661;-40
2023/05/03 08:48:15;;;;;;;3.80;1.80;;;;;;;19.48;33.18;99978.21;107215;1257;62119;-40
2023/05/03 08:50:43;;;;;;;9.50;1.90;;;;;;;19.56;33.22;99981.38;107263;1258;74961;-40
2023/05/03 08:53:10;;;;;;;4.80;1.80;;;;;;;19.66;32.71;99976.89;107232;1257;68734;-39
2023/05/03 08:55:38;;;;;;;7.20;2.20;;;;;;;19.68;32.17;99980.73;107229;1256;75494;-40
2023/05/03 08:58:11;;;;;;;6.00;2.10;;;;;;;19.69;33.29;99977.88;107129;1258;62676;-40
2023/05/03 09:00:43;;;;;;;8.00;2.40;;;;;;;19.79;32.33;99980.00;107256;1257;61917;-40
2023/05/03 09:03:11;;;;;;;7.90;2.10;;;;;;;19.83;32.00;99981.38;107261;1257;75294;-39
2023/05/03 09:05:39;;;;;;;7.50;2.20;;;;;;;19.87;32.70;99974.04;107352;1258;70102;-40
2023/05/03 09:08:08;;;;;;;4.40;1.90;;;;;;;19.99;32.87;99974.23;107245;1257;74999;-40
2023/05/03 09:10:37;;;;;;;4.90;1.90;;;;;;;20.11;33.02;99974.51;107262;1258;62303;-40
2023/05/03 09:13:05;;;;;;;6.50;2.20;;;;;;;20.23;32.81;99977.29;107227;1258;62658;-40
2023/05/03 09:15:33;;;;;;;6.90;2.50;;;;;;;20.35;32.35;99972.77;107226;1261;75361;-39
2023/05/03 09:18:14;;;;;;;6.30;2.30;;;;;;;20.45;32.30;99974.88;107220;1258;68530;-39
2023/05/03 09:20:50;;;;;;;5.70;2.20;;;;;;;20.49;31.77;99968.07;107247;1257;74053;-40
2023/05/03 09:23:30;;;;;;;7.40;2.40;;;;;;;20.50;31.36;99969.55;107216;1262;60220;-40
2023/05/03 09:25:58;;;;;;;3.80;2.40;;;;;;;20.52;31.94;99967.94;107232;1261;62111;-40
2023/05/03 09:28:26;;;;;;;6.10;2.40;;;;;;;20.59;32.06;99967.02;107220;1255;74210;-40
2023/05/03 09:31:05;;;;;;;3.40;2.00;;;;;;;20.69;32.27;99969.70;107353;1261;69916;-40
2023/05/03 09:33:32;;;;;;;6.80;2.30;;;;;;;20.81;32.56;99970.27;107278;1258;74995;-40
2023/05/03 09:36:01;;;;;;;5.40;2.20;;;;;;;20.88;31.47;99979.33;107191;1257;60172;-39
2023/05/03 09:38:32;;;;;;;7.70;2.50;;;;;;;20.90;31.72;99970.70;107271;1258;63141;-40
2023/05/03 09:41:00;;;;;;;8.10;2.30;;;;;;;20.99;31.90;99967.58;107254;1257;75686;-40
2023/05/03 09:43:27;;;;;;;7.70;2.40;;;;;;;21.05;31.46;99967.89;107266;1258;70448;-40
2023/05/03 09:46:10;;;;;;;7.80;2.30;;;;;;;21.09;31.28;99960.59;107178;1258;74891;-40
2023/05/03 09:48:38;;;;;;;4.80;2.00;;;;;;;21.16;31.69;99958.46;107087;1262;61580;-40
2023/05/03 09:51:05;;;;;;;9.60;2.10;;;;;;;21.25;31.41;99954.88;107119;1258;61449;-39
2023/05/03 09:53:35;;;;;;;5.40;2.40;;;;;;;21.41;31.58;99960.15;107113;1257;74864;-40
2023/05/03 09:56:03;;;;;;;4.00;2.30;;;;;;;21.57;30.92;99953.43;107229;1262;69346;-40
2023/05/03 09:58:30;;;;;;;8.40;2.30;;;;;;;21.72;31.01;99957.67;107124;1258;74542;-40
2023/05/03 10:00:57;;;;;;;5.80;2.30;;;;;;;21.82;30.28;99956.88;107139;1257;59653;-39
2023/05/03 10:03:40;;;;;;;10.80;2.40;;;;;;;21.91;30.88;99953.00;107044;1261;61647;-39
2023/05/03 10:06:25;;;;;;;5.80;2.30;;;;;;;22.07;30.42;99953.13;107103;1256;75411;-39
2023/05/03 10:09:13;;;;;;;10.50;2.70;;;;;;;22.24;30.65;99954.02;107164;1257;70219;-39
2023/05/03 10:11:47;;;;;;;6.40;2.30;;;;;;;22.40;30.50;99961.73;107212;1260;72998;-39
2023/05/03 10:14:14;;;;;;;6.20;2.40;;;;;;;22.52;30.72;99959.45;107267;1257;60355;-39
2023/05/03 10:16:47;;;;;;;9.20;2.30;;;;;;;22.60;30.45;99964.10;107279;1260;62277;-39
2023/05/03 10:19:27;;;;;;;3.40;2.10;;;;;;;22.66;30.62;99963.33;107264;1255;74268;-39
2023/05/03 10:22:07;;;;;;;9.60;2.50;;;;;;;22.74;30.77;99964.14;107275;1260;69596;-39
2023/05/03 10:24:54;;;;;;;3.20;2.10;;;;;;;22.85;30.81;99963.44;107295;1257;74001;-39
2023/05/03 10:27:21;;;;;;;5.70;2.10;;;;;;;23.03;30.93;99958.08;107251;1262;62827;-39
2023/05/03 10:29:50;;;;;;;7.10;2.30;;;;;;;23.18;30.43;99958.91;107234;1257;61607;-39
2023/05/03 10:32:28;;;;;;;23.80;3.10;;;;;;;23.26;30.12;99965.69;107300;1257;75968;-39
2023/05/03 10:35:08;;;;;;;7.50;2.60;;;;;;;23.26;29.46;99957.63;107314;1258;69559;-39
2023/05/03 10:37:36;;;;;;;5.30;2.30;;;;;;;23.23;29.77;99957.86;107265;1258;74489;-40
2023/05/03 10:40:17;;;;;;;9.10;2.70;;;;;;;23.22;29.98;99956.15;107277;1260;61218;-40
2023/05/03 10:42:45;;;;;;;5.50;2.30;;;;;;;23.21;30.58;99955.29;107299;1258;62097;-40
2023/05/03 10:45:27;;;;;;;5.10;2.60;;;;;;;23.23;30.18;99956.19;107318;1258;76217;-39
2023/05/03 10:48:21;;;;;;;10.10;2.10;;;;;;;23.29;30.70;99956.75;107361;1256;69492;-39
2023/05/03 10:50:50;;;;;;;5.20;2.70;;;;;;;23.43;29.84;99955.11;107238;1258;74929;-38
2023/05/03 10:53:30;;;;;;;5.20;2.90;;;;;;;23.51;30.53;99957.38;107189;1257;62592;-39
2023/05/03 10:56:07;;;;;;;8.40;2.40;;;;;;;23.67;29.54;99955.63;107193;1261;62324;-39
2023/05/03 10:58:36;;;;;;;5.70;2.20;;;;;;;23.77;29.70;99958.53;107244;1258;76969;-39
2023/05/03 11:01:04;;;;;;;9.70;3.10;;;;;;;23.88;29.75;99945.28;107279;1257;70172;-39
2023/05/03 11:03:56;;;;;;;9.70;2.70;;;;;;;24.01;29.88;99943.28;107225;1260;74621;-39
2023/05/03 11:06:31;;;;;;;4.70;2.20;;;;;;;24.17;29.44;99945.48;107260;1263;60531;-39
2023/05/03 11:08:59;;;;;;;6.70;2.80;;;;;;;24.31;29.77;99944.40;107231;1258;62238;-39
2023/05/03 11:11:26;;;;;;;5.70;2.70;;;;;;;24.44;28.53;99942.44;107251;1256;75160;-39
2023/05/03 11:13:53;;;;;;;4.10;2.40;;;;;;;24.55;29.04;99942.97;107250;1260;70289;-39
2023/05/03 11:16:22;;;;;;;4.90;2.50;;;;;;;24.61;29.01;99945.19;107296;1260;74956;-39
2023/05/03 11:18:50;;;;;;;6.50;2.60;;;;;;;24.57;28.87;99941.43;107148;1263;62671;-39
2023/05/03 11:21:20;;;;;;;5.40;2.50;;;;;;;24.53;28.61;99942.67;107256;1260;61434;-39
2023/05/03 11:23:47;;;;;;;8.60;2.60;;;;;;;24.50;28.95;99940.46;107031;1257;72566;-39
2023/05/03 11:26:15;;;;;;;4.60;2.60;;;;;;;24.54;29.21;99938.98;107198;1258;68050;-39
2023/05/03 11:28:42;;;;;;;4.60;2.60;;;;;;;24.64;29.51;99939.16;107261;1257;74528;-39
2023/05/03 11:31:10;;;;;;;5.10;2.40;;;;;;;24.87;29.37;99934.06;107250;1258;60719;-39
2023/05/03 11:33:38;;;;;;;4.70;2.60;;;;;;;25.05;28.09;99936.36;107365;1260;61684;-39
2023/05/03 11:36:07;;;;;;;6.50;2.90;;;;;;;25.18;28.36;99934.95;107325;1260;74915;-39
2023/05/03 11:38:35;;;;;;;6.90;2.60;;;;;;;25.38;28.47;99938.33;107331;1260;70235;-39